Orion — VRBZ2 — position and weather

sailwx.info

Track history (hours):
 
Tides and Currents Weather Stations Pressure Air Temp Water Temp Dewpoint Dewpoint Depression Visibility Wind Speed Wind Dir Waves Ship Positions

Orion

Last reported at 2018-Jan-18 10:25 UTC. Time now 2018-Jan-24 02:00 UTC.
Position S 33°00' W 071°46'.

Length 181 m; draft 8.4 m.

Type: Ship (hazmat cat C). MMSI: 477241100.

Date/timePositionNaut miles runAvg speedWind from/ knotsBaromVisibWave heightAir tempDewpointWater temp
2018-Jan-18 10:25S 33°00' W 071°46'4 9.6
2018-Jan-18 10:00S 32°57' W 071°45'5 9.7
2018-Jan-18 09:30S 32°52' W 071°43'5 9.6
2018-Jan-18 09:01S 32°48' W 071°39'5 9.6
2018-Jan-18 08:30S 32°44' W 071°36'4 8.6
2018-Jan-18 07:59S 32°45' W 071°31'  
2018-Jan-11 03:56S 33°02' W 071°53'511.2
2018-Jan-11 03:31S 32°58' W 071°51'611.1
2018-Jan-11 03:00S 32°54' W 071°47'611.1
2018-Jan-11 02:31S 32°50' W 071°42'611.6
2018-Jan-11 02:01S 32°45' W 071°38'5 9.3
2018-Jan-11 01:30S 32°44' W 071°32'3 0.2
2018-Jan-10 10:38S 32°46' W 071°30'0 0.0
2018-Jan-10 10:25S 32°46' W 071°30'0 0.0
2018-Jan-10 10:00S 32°46' W 071°30'0 0.0
2018-Jan-09 10:08S 32°46' W 071°30'0 0.0
2018-Jan-09 09:54S 32°46' W 071°30'2 0.1
2018-Jan-08 17:35S 32°45' W 071°32'2 4.3
2018-Jan-08 17:05S 32°45' W 071°34'2 9.1
2018-Jan-08 16:53S 32°45' W 071°36'2 4.0
2018-Jan-08 16:25S 32°45' W 071°39'0 0.7
2018-Jan-08 16:00S 32°46' W 071°39'1 1.0
2018-Jan-08 15:05S 32°47' W 071°39'0 6.6
2018-Jan-08 15:00S 32°46' W 071°38'3 3.0
2018-Jan-08 14:04S 32°43' W 071°38'0 0.6
2018-Jan-08 13:20S 32°44' W 071°39'0 0.5
2018-Jan-08 13:00S 32°44' W 071°39'0 0.6
2018-Jan-08 12:23S 32°44' W 071°39'0 0.5
2018-Jan-08 11:47S 32°44' W 071°39'0 0.5
2018-Jan-08 11:30S 32°45' W 071°39'0 0.5
2018-Jan-08 11:00S 32°45' W 071°39'0 0.5
2018-Jan-08 10:30S 32°45' W 071°39'  
Track history (hours):
 
Tides and Currents Weather Stations Pressure Air Temp Water Temp Dewpoint Dewpoint Depression Visibility Wind Speed Wind Dir Waves Ship Positions

Orion

Last reported at 2018-Jan-18 10:25 UTC. Time now 2018-Jan-24 02:00 UTC.
Position S 33°00' W 071°46'.

Length 181 m; draft 8.4 m.

Type: Ship (hazmat cat C). MMSI: 477241100.

Date/timePositionNaut miles runAvg speedWind from/ knotsBaromVisibWave heightAir tempDewpointWater temp
2018-Jan-18 10:25S 33°00' W 071°46'4 9.6
2018-Jan-18 10:00S 32°57' W 071°45'5 9.7
2018-Jan-18 09:30S 32°52' W 071°43'5 9.6
2018-Jan-18 09:01S 32°48' W 071°39'5 9.6
2018-Jan-18 08:30S 32°44' W 071°36'4 8.6
2018-Jan-18 07:59S 32°45' W 071°31'  
2018-Jan-11 03:56S 33°02' W 071°53'511.2
2018-Jan-11 03:31S 32°58' W 071°51'611.1
2018-Jan-11 03:00S 32°54' W 071°47'611.1
2018-Jan-11 02:31S 32°50' W 071°42'611.6
2018-Jan-11 02:01S 32°45' W 071°38'5 9.3
2018-Jan-11 01:30S 32°44' W 071°32'3 0.2
2018-Jan-10 10:38S 32°46' W 071°30'0 0.0
2018-Jan-10 10:25S 32°46' W 071°30'0 0.0
2018-Jan-10 10:00S 32°46' W 071°30'0 0.0
2018-Jan-09 10:08S 32°46' W 071°30'0 0.0
2018-Jan-09 09:54S 32°46' W 071°30'2 0.1
2018-Jan-08 17:35S 32°45' W 071°32'2 4.3
2018-Jan-08 17:05S 32°45' W 071°34'2 9.1
2018-Jan-08 16:53S 32°45' W 071°36'2 4.0
2018-Jan-08 16:25S 32°45' W 071°39'0 0.7
2018-Jan-08 16:00S 32°46' W 071°39'1 1.0
2018-Jan-08 15:05S 32°47' W 071°39'0 6.6
2018-Jan-08 15:00S 32°46' W 071°38'3 3.0
2018-Jan-08 14:04S 32°43' W 071°38'0 0.6
2018-Jan-08 13:20S 32°44' W 071°39'0 0.5
2018-Jan-08 13:00S 32°44' W 071°39'0 0.6
2018-Jan-08 12:23S 32°44' W 071°39'0 0.5
2018-Jan-08 11:47S 32°44' W 071°39'0 0.5
2018-Jan-08 11:30S 32°45' W 071°39'0 0.5
2018-Jan-08 11:00S 32°45' W 071°39'0 0.5
2018-Jan-08 10:30S 32°45' W 071°39'  

Dump ship's entire track history